Time;durP1;ratioP1;P1;durP2;ratioP2;P2;SDS_P1;SDS_P2;PMS_P1;PMS_P2;Temp;Humidity;BMP_temperature;BMP_pressure;BME280_temperature;BME280_humidity;BME280_pressure;Samples;Min_cycle;Max_cycle;Signal;HPM_P1;HPM_P2
2022/07/30 00:02:21;;;;;;;6.87;5.10;;;19.00;94.20;;;;;;5010130;28;20227;-60
2022/07/30 00:04:46;;;;;;;7.90;6.03;;;19.00;94.20;;;;;;4994509;28;20250;-60
2022/07/30 00:07:12;;;;;;;6.33;5.80;;;19.00;94.30;;;;;;4996083;28;20200;-60
2022/07/30 00:09:38;;;;;;;6.77;6.17;;;19.00;94.30;;;;;;5000441;28;20204;-60
2022/07/30 00:12:07;;;;;;;5.73;5.13;;;19.00;94.60;;;;;;4998226;28;20202;-60
2022/07/30 00:14:33;;;;;;;8.33;5.70;;;19.00;94.50;;;;;;5001187;28;20302;-60
2022/07/30 00:17:00;;;;;;;6.23;5.73;;;19.00;94.50;;;;;;4981789;28;20234;-60
2022/07/30 00:19:26;;;;;;;6.53;5.97;;;19.00;94.40;;;;;;4961618;28;20203;-60
2022/07/30 00:21:53;;;;;;;8.03;5.87;;;19.10;94.40;;;;;;4961505;28;20192;-60
2022/07/30 00:24:19;;;;;;;5.60;5.20;;;19.10;94.40;;;;;;4977546;28;20219;-60
2022/07/30 00:26:45;;;;;;;7.40;5.63;;;19.10;94.40;;;;;;4977861;28;20262;-60
2022/07/30 00:29:11;;;;;;;6.67;6.07;;;19.10;94.40;;;;;;4968426;28;20200;-60
2022/07/30 00:31:36;;;;;;;6.47;5.87;;;19.00;94.40;;;;;;5019119;28;20196;-60
2022/07/30 00:34:02;;;;;;;6.60;6.00;;;19.00;94.40;;;;;;4989939;28;20263;-60
2022/07/30 00:36:28;;;;;;;5.97;5.47;;;19.10;94.40;;;;;;4951118;28;20200;-60
2022/07/30 00:38:54;;;;;;;8.03;5.63;;;19.00;94.40;;;;;;4967692;28;20290;-60
2022/07/30 00:41:19;;;;;;;6.10;5.60;;;19.00;94.40;;;;;;4966760;28;20283;-60
2022/07/30 00:43:45;;;;;;;6.07;5.47;;;19.00;94.40;;;;;;4991807;28;20197;-60
2022/07/30 00:46:13;;;;;;;6.70;6.00;;;19.00;94.40;;;;;;4980070;28;20220;-60
2022/07/30 00:48:39;;;;;;;9.33;6.80;;;19.00;94.40;;;;;;4983640;28;20204;-60
2022/07/30 00:51:05;;;;;;;9.00;7.97;;;19.00;94.40;;;;;;5015943;28;20199;-60
2022/07/30 00:53:31;;;;;;;10.67;8.43;;;19.00;94.40;;;;;;4966642;28;20204;-60
2022/07/30 00:55:57;;;;;;;10.90;9.60;;;19.10;94.60;;;;;;5003198;28;20224;-60
2022/07/30 00:58:23;;;;;;;10.23;9.33;;;19.10;94.60;;;;;;5016117;28;20199;-60
2022/07/30 01:00:48;;;;;;;9.60;8.67;;;19.10;94.40;;;;;;4983963;28;20192;-60
2022/07/30 01:03:14;;;;;;;10.73;9.83;;;19.10;94.40;;;;;;4967311;28;20196;-60
2022/07/30 01:05:40;;;;;;;9.87;8.87;;;19.10;94.40;;;;;;5016056;28;20275;-60
2022/07/30 01:08:05;;;;;;;11.37;10.17;;;19.10;94.50;;;;;;5003957;28;20207;-60
2022/07/30 01:10:31;;;;;;;11.30;10.17;;;19.10;94.50;;;;;;4967762;28;20207;-60
2022/07/30 01:12:58;;;;;;;11.37;10.37;;;19.20;94.50;;;;;;4976305;28;20342;-60
2022/07/30 01:15:24;;;;;;;11.53;10.43;;;19.20;94.60;;;;;;5016186;28;20219;-60
2022/07/30 01:17:52;;;;;;;15.83;10.37;;;19.20;94.70;;;;;;4983457;28;20204;-60
2022/07/30 01:20:25;;;;;;;10.43;9.53;;;19.20;94.70;;;;;;4999883;28;20224;-60
2022/07/30 01:23:08;;;;;;;11.47;9.97;;;19.20;94.70;;;;;;4999572;28;20198;-60
2022/07/30 01:25:57;;;;;;;11.00;10.00;;;19.20;94.40;;;;;;5010980;28;20255;-60
2022/07/30 01:28:27;;;;;;;13.10;11.20;;;19.20;94.50;;;;;;4999885;28;20201;-60
2022/07/30 01:30:56;;;;;;;12.07;10.60;;;19.20;94.60;;;;;;4999726;28;20203;-60
2022/07/30 01:33:24;;;;;;;12.37;10.40;;;19.20;94.70;;;;;;4999519;28;20227;-60
2022/07/30 01:35:51;;;;;;;11.67;10.47;;;19.20;94.80;;;;;;5000289;28;20219;-60
2022/07/30 01:38:21;;;;;;;12.40;11.20;;;19.20;94.80;;;;;;5023296;28;20188;-60
2022/07/30 01:40:50;;;;;;;14.20;10.20;;;19.20;94.80;;;;;;5006416;28;20195;-60
2022/07/30 01:43:18;;;;;;;9.57;8.70;;;19.20;94.80;;;;;;5012080;28;20192;-60
2022/07/30 01:45:47;;;;;;;10.73;9.77;;;19.10;94.50;;;;;;5012738;28;20302;-60
2022/07/30 01:48:14;;;;;;;11.73;10.50;;;19.10;94.50;;;;;;4997243;28;20200;-60
2022/07/30 01:50:44;;;;;;;10.33;9.33;;;19.10;94.60;;;;;;4996382;28;20196;-60
2022/07/30 01:53:17;;;;;;;8.70;8.00;;;19.10;94.40;;;;;;4996240;28;20200;-60
2022/07/30 01:55:45;;;;;;;10.63;9.63;;;19.00;94.00;;;;;;4996326;28;20220;-60
2022/07/30 01:58:12;;;;;;;9.70;8.70;;;19.00;93.90;;;;;;4997730;28;20189;-60
2022/07/30 02:00:41;;;;;;;9.33;8.43;;;19.00;93.90;;;;;;4996488;28;20193;-60
2022/07/30 02:03:09;;;;;;;9.53;8.33;;;19.00;93.50;;;;;;4980072;28;20189;-60
2022/07/30 02:05:36;;;;;;;7.67;6.97;;;19.00;93.80;;;;;;4993705;28;20201;-60
2022/07/30 02:08:04;;;;;;;10.10;9.13;;;18.90;92.70;;;;;;5009491;28;20205;-60
2022/07/30 02:10:35;;;;;;;9.13;7.60;;;18.90;92.90;;;;;;5006915;28;20212;-60
2022/07/30 02:13:05;;;;;;;8.57;7.77;;;18.90;92.10;;;;;;5005394;28;20244;-60
2022/07/30 02:15:41;;;;;;;7.33;6.73;;;18.90;92.80;;;;;;5008577;28;20235;-60
2022/07/30 02:18:15;;;;;;;8.00;7.40;;;18.90;92.80;;;;;;4988587;28;20225;-59
2022/07/30 02:20:46;;;;;;;8.80;8.00;;;18.90;92.80;;;;;;4994977;28;20196;-60
2022/07/30 02:23:14;;;;;;;8.63;7.83;;;18.90;93.20;;;;;;4995540;28;20188;-60
2022/07/30 02:25:43;;;;;;;9.97;8.37;;;18.90;93.30;;;;;;5019022;28;20200;-60
2022/07/30 02:28:11;;;;;;;9.00;8.10;;;19.00;93.60;;;;;;4979521;28;20350;-60
2022/07/30 02:30:50;;;;;;;9.20;8.03;;;19.00;93.80;;;;;;4995371;28;20338;-60
2022/07/30 02:33:18;;;;;;;8.37;7.47;;;19.00;93.90;;;;;;4995503;28;20191;-60
2022/07/30 02:35:44;;;;;;;8.13;7.43;;;19.10;94.00;;;;;;4979493;28;20208;-60
2022/07/30 02:38:12;;;;;;;8.83;8.00;;;19.00;94.00;;;;;;4995466;28;20212;-60
2022/07/30 02:40:40;;;;;;;7.90;7.10;;;19.10;94.10;;;;;;4989011;28;20212;-60
2022/07/30 02:43:06;;;;;;;7.20;6.60;;;19.10;94.10;;;;;;4992847;28;20200;-60
2022/07/30 02:45:33;;;;;;;7.40;6.70;;;19.10;94.10;;;;;;4978282;28;20202;-59
2022/07/30 02:48:05;;;;;;;6.63;5.93;;;19.00;93.30;;;;;;4992743;28;20204;-60
2022/07/30 02:50:32;;;;;;;6.73;6.13;;;18.90;91.40;;;;;;4985483;28;20287;-60
2022/07/30 02:53:00;;;;;;;8.40;7.53;;;18.90;91.10;;;;;;5011147;28;20192;-61
2022/07/30 02:55:29;;;;;;;8.73;7.17;;;18.90;91.80;;;;;;5006696;28;20216;-61
2022/07/30 02:57:56;;;;;;;8.87;7.80;;;18.80;92.10;;;;;;4994091;28;20272;-61
2022/07/30 03:00:23;;;;;;;8.10;7.40;;;18.90;92.70;;;;;;4985427;28;20248;-61
2022/07/30 03:02:51;;;;;;;9.70;8.77;;;18.90;93.20;;;;;;4994974;28;20199;-61
